createdAt,value
2019-04-23T00:01:55.382Z,46.90
2019-04-23T00:02:29.021Z,47.00
2019-04-23T00:03:51.379Z,47.20
2019-04-23T00:04:35.002Z,47.20
2019-04-23T00:06:06.513Z,47.20
2019-04-23T00:08:09.340Z,47.40
2019-04-23T00:08:57.602Z,47.50
2019-04-23T00:12:58.226Z,48.00
2019-04-23T00:13:36.959Z,47.90
2019-04-23T00:15:04.213Z,47.80
2019-04-23T00:15:51.558Z,48.10
2019-04-23T00:16:49.055Z,48.00
2019-04-23T00:17:55.153Z,48.40
2019-04-23T00:18:49.158Z,48.40
2019-04-23T00:19:30.792Z,48.40
2019-04-23T00:21:45.702Z,48.30
2019-04-23T00:23:04.877Z,48.70
2019-04-23T00:25:23.883Z,48.60
2019-04-23T00:26:36.286Z,48.80
2019-04-23T00:27:57.671Z,48.70
2019-04-23T00:28:58.697Z,48.80
2019-04-23T00:29:55.671Z,49.00
2019-04-23T00:31:04.181Z,49.00
2019-04-23T00:31:31.014Z,49.10
2019-04-23T00:32:55.233Z,49.20
2019-04-23T00:33:49.407Z,49.50
2019-04-23T00:34:59.409Z,49.50
2019-04-23T00:35:49.618Z,49.60
2019-04-23T00:37:54.686Z,49.40
2019-04-23T00:38:53.863Z,49.40
2019-04-23T00:39:56.136Z,49.40
2019-04-23T00:40:57.174Z,49.40
2019-04-23T00:41:49.196Z,49.80
2019-04-23T00:42:53.052Z,49.90
2019-04-23T00:44:00.414Z,50.10
2019-04-23T00:45:54.248Z,50.50
2019-04-23T00:46:54.244Z,50.50
2019-04-23T00:49:04.748Z,50.70
2019-04-23T00:49:30.763Z,50.90
2019-04-23T00:51:42.283Z,50.80
2019-04-23T00:52:49.790Z,50.80
2019-04-23T00:53:26.463Z,50.60
2019-04-23T00:54:56.861Z,50.90
2019-04-23T00:55:55.473Z,51.00
2019-04-23T00:57:57.638Z,51.10
2019-04-23T00:58:54.459Z,51.30
2019-04-23T00:59:37.509Z,51.10
2019-04-23T01:00:57.567Z,51.30
2019-04-23T01:01:55.601Z,51.30
2019-04-23T01:02:58.779Z,51.40
2019-04-23T01:03:48.140Z,51.30
2019-04-23T01:05:40.874Z,51.70
2019-04-23T01:06:51.019Z,51.70
2019-04-23T01:07:49.587Z,51.70
2019-04-23T01:08:50.567Z,51.80
2019-04-23T01:09:59.525Z,51.60
2019-04-23T01:11:43.158Z,51.70
2019-04-23T01:14:55.001Z,52.10
2019-04-23T01:15:52.181Z,52.10
2019-04-23T01:16:42.308Z,52.00
2019-04-23T01:17:52.914Z,51.90
2019-04-23T01:19:06.389Z,51.90
2019-04-23T01:20:00.918Z,51.80
2019-04-23T01:20:53.387Z,51.80
2019-04-23T01:21:07.430Z,51.80
2019-04-23T01:22:08.285Z,52.20
2019-04-23T01:23:07.348Z,51.90
2019-04-23T01:24:17.675Z,51.70
2019-04-23T01:25:24.335Z,51.90
2019-04-23T01:27:01.587Z,52.20
2019-04-23T01:27:50.867Z,52.20
2019-04-23T01:28:47.511Z,52.10
2019-04-23T01:29:42.294Z,52.10
2019-04-23T01:30:40.321Z,52.00
2019-04-23T01:31:40.896Z,51.90
2019-04-23T01:33:00.994Z,51.90
2019-04-23T01:33:50.013Z,52.00
2019-04-23T01:35:12.340Z,51.90
2019-04-23T01:36:02.725Z,52.10
2019-04-23T01:36:55.844Z,51.90
2019-04-23T01:37:50.366Z,51.90
2019-04-23T01:38:38.787Z,51.80
2019-04-23T01:39:57.154Z,51.90
2019-04-23T01:40:51.667Z,52.00
2019-04-23T01:42:11.379Z,52.00
2019-04-23T01:42:40.330Z,52.00
2019-04-23T01:43:50.121Z,52.00
2019-04-23T01:45:13.058Z,51.90
2019-04-23T01:45:29.469Z,52.00
2019-04-23T01:46:41.496Z,51.80
2019-04-23T01:47:59.456Z,52.00
2019-04-23T01:50:13.632Z,52.00
2019-04-23T01:51:00.174Z,51.90
2019-04-23T01:51:45.965Z,51.90
2019-04-23T01:52:45.391Z,51.90
2019-04-23T01:53:56.529Z,51.90
2019-04-23T01:55:41.982Z,51.60
2019-04-23T01:56:54.599Z,51.60
2019-04-23T01:58:51.714Z,51.70
2019-04-23T02:00:08.057Z,51.70
2019-04-23T02:00:40.547Z,51.60
2019-04-23T02:01:57.794Z,51.50
2019-04-23T02:02:55.268Z,51.40
2019-04-23T02:04:03.057Z,51.50
2019-04-23T02:05:08.802Z,51.60
2019-04-23T02:05:41.049Z,51.50
2019-04-23T02:06:38.455Z,51.60
2019-04-23T02:07:56.189Z,51.50
2019-04-23T02:08:51.725Z,51.50
2019-04-23T02:10:13.702Z,51.50
2019-04-23T02:10:56.116Z,51.60
2019-04-23T02:11:50.451Z,51.70
2019-04-23T02:13:00.117Z,51.60
2019-04-23T02:14:41.391Z,51.50
2019-04-23T02:15:47.256Z,51.50
2019-04-23T02:16:59.883Z,51.60
2019-04-23T02:20:08.737Z,51.70
2019-04-23T02:20:42.616Z,51.60
2019-04-23T02:21:51.550Z,51.60
2019-04-23T02:22:49.681Z,51.80
2019-04-23T02:23:47.823Z,51.70
2019-04-23T02:25:13.000Z,51.70
2019-04-23T02:25:49.853Z,51.80
2019-04-23T02:26:55.344Z,51.80
2019-04-23T02:28:58.973Z,51.80
2019-04-23T02:30:39.757Z,51.80
2019-04-23T02:31:48.716Z,51.80
2019-04-23T02:31:57.339Z,51.60
2019-04-23T02:33:34.129Z,51.90
2019-04-23T02:33:49.290Z,51.90
2019-04-23T02:36:10.795Z,51.70
2019-04-23T02:37:21.843Z,52.00
2019-04-23T02:38:00.038Z,52.00
2019-04-23T02:38:49.529Z,52.00
2019-04-23T02:39:56.979Z,52.10
2019-04-23T02:41:15.755Z,52.10
2019-04-23T02:42:18.459Z,52.20
2019-04-23T02:43:15.927Z,52.10
2019-04-23T02:43:31.975Z,52.20
2019-04-23T02:45:08.820Z,52.00
2019-04-23T02:46:05.319Z,52.20
2019-04-23T02:47:07.756Z,52.20
2019-04-23T02:48:23.793Z,52.10
2019-04-23T02:48:52.396Z,52.00
2019-04-23T02:50:34.325Z,51.90
2019-04-23T02:52:20.643Z,52.10
2019-04-23T02:54:34.683Z,52.10
2019-04-23T02:54:49.890Z,52.30
2019-04-23T02:56:30.344Z,52.10
2019-04-23T02:56:46.189Z,52.30
2019-04-23T02:58:09.760Z,52.30
2019-04-23T02:58:52.011Z,52.40
2019-04-23T03:01:23.453Z,52.60
2019-04-23T03:02:23.693Z,52.50
2019-04-23T03:02:58.042Z,52.40
2019-04-23T03:03:49.052Z,52.60
2019-04-23T03:05:45.012Z,52.70
2019-04-23T03:07:44.828Z,52.70
2019-04-23T03:09:19.931Z,52.80
2019-04-23T03:12:24.105Z,52.90
2019-04-23T03:14:13.412Z,52.80
2019-04-23T03:14:48.709Z,53.00
2019-04-23T03:17:02.509Z,53.30
2019-04-23T03:18:20.295Z,53.30
2019-04-23T03:19:23.448Z,53.30
2019-04-23T03:22:05.410Z,53.40
2019-04-23T03:23:09.766Z,53.50
2019-04-23T03:25:09.856Z,53.60
2019-04-23T03:26:08.093Z,53.40
2019-04-23T03:27:33.484Z,53.40
2019-04-23T03:27:40.419Z,53.50
2019-04-23T03:29:54.747Z,53.50
2019-04-23T03:32:44.418Z,53.50
2019-04-23T03:35:07.804Z,53.50
2019-04-23T03:35:07.821Z,53.50
2019-04-23T03:36:08.904Z,53.60
2019-04-23T03:37:16.014Z,53.70
2019-04-23T03:38:37.392Z,53.70
2019-04-23T03:39:01.390Z,53.60
2019-04-23T03:40:25.600Z,53.70
2019-04-23T03:41:20.845Z,53.80
2019-04-23T03:41:47.786Z,53.90
2019-04-23T03:43:24.919Z,53.90
2019-04-23T03:43:40.952Z,53.90
2019-04-23T03:45:07.281Z,53.90
2019-04-23T03:46:36.203Z,53.90
2019-04-23T03:47:10.520Z,53.90
2019-04-23T03:48:14.436Z,54.00
2019-04-23T03:49:05.315Z,54.00
2019-04-23T03:50:21.218Z,53.90
2019-04-23T03:51:15.965Z,54.00
2019-04-23T03:52:27.163Z,54.10
2019-04-23T03:53:02.766Z,54.00
2019-04-23T03:53:51.968Z,54.20
2019-04-23T03:54:43.170Z,54.10
2019-04-23T03:55:54.208Z,54.10
2019-04-23T03:56:51.834Z,54.20
2019-04-23T03:57:37.815Z,54.20
2019-04-23T03:59:10.432Z,54.30
2019-04-23T03:59:54.543Z,54.30
2019-04-23T04:01:11.605Z,54.30
2019-04-23T04:02:30.468Z,54.20
2019-04-23T04:02:56.158Z,54.10
2019-04-23T04:04:36.328Z,54.20
2019-04-23T04:04:44.226Z,54.20
2019-04-23T04:06:13.218Z,54.10
2019-04-23T04:07:35.492Z,54.30
2019-04-23T04:07:57.310Z,54.40
2019-04-23T04:09:33.926Z,54.40
2019-04-23T04:10:15.487Z,54.40
2019-04-23T04:11:54.658Z,54.40
2019-04-23T04:13:50.250Z,54.40
2019-04-23T04:15:55.059Z,54.50
2019-04-23T04:17:19.414Z,54.60
2019-04-23T04:18:30.413Z,54.60
2019-04-23T04:19:30.959Z,54.70
2019-04-23T04:19:46.554Z,54.70
2019-04-23T04:21:24.321Z,54.70
2019-04-23T04:21:47.448Z,54.70
2019-04-23T04:23:32.610Z,54.80
2019-04-23T04:24:34.266Z,54.90
2019-04-23T04:25:46.513Z,55.00
2019-04-23T04:28:17.006Z,55.00
2019-04-23T04:29:25.485Z,55.00
2019-04-23T04:30:27.065Z,54.90
2019-04-23T04:30:47.967Z,54.90
2019-04-23T04:31:45.489Z,54.80
2019-04-23T04:33:14.667Z,54.90
2019-04-23T04:34:55.288Z,54.90
2019-04-23T04:35:12.009Z,54.90
2019-04-23T04:36:13.841Z,54.80
2019-04-23T04:37:40.097Z,54.90
2019-04-23T04:38:24.726Z,55.10
2019-04-23T04:38:44.681Z,55.10
2019-04-23T04:40:36.264Z,55.00
2019-04-23T04:41:05.317Z,55.10
2019-04-23T04:41:49.968Z,55.00
2019-04-23T04:43:22.128Z,54.90
2019-04-23T04:44:16.806Z,55.10
2019-04-23T04:46:38.454Z,55.20
2019-04-23T04:47:09.284Z,55.00
2019-04-23T04:47:44.376Z,55.00
2019-04-23T04:49:19.540Z,54.90
2019-04-23T04:49:50.756Z,54.90
2019-04-23T04:51:26.861Z,54.70
2019-04-23T04:53:44.597Z,54.10
2019-04-23T04:54:00.615Z,53.80
2019-04-23T04:54:49.572Z,53.20
2019-04-23T04:56:13.814Z,53.20
2019-04-23T04:57:19.745Z,52.90
2019-04-23T04:57:52.013Z,52.50
2019-04-23T04:59:08.386Z,52.30
2019-04-23T05:00:10.131Z,52.00
2019-04-23T05:01:22.164Z,52.00
2019-04-23T05:02:37.455Z,51.40
2019-04-23T05:03:29.024Z,51.40
2019-04-23T05:04:09.367Z,51.30
2019-04-23T05:05:37.420Z,50.90
2019-04-23T05:06:43.553Z,50.60
2019-04-23T05:07:47.213Z,50.30
2019-04-23T05:09:18.921Z,50.10
2019-04-23T05:10:24.905Z,49.80
2019-04-23T05:12:22.646Z,49.60
2019-04-23T05:13:38.851Z,49.50
2019-04-23T05:13:49.588Z,49.50
2019-04-23T05:15:16.150Z,49.10
2019-04-23T05:15:44.138Z,48.70
2019-04-23T05:17:02.636Z,48.30
2019-04-23T05:18:17.138Z,48.10
2019-04-23T05:19:01.764Z,48.10
2019-04-23T05:19:56.079Z,47.90
2019-04-23T05:21:03.363Z,47.50
2019-04-23T05:22:13.968Z,47.50
2019-04-23T05:24:08.100Z,47.20
2019-04-23T05:24:50.879Z,47.20
2019-04-23T05:25:57.669Z,47.30
2019-04-23T05:26:57.786Z,47.20
2019-04-23T05:31:05.560Z,46.50
2019-04-23T05:31:57.535Z,46.50
2019-04-23T05:32:55.823Z,46.30
2019-04-23T05:34:02.411Z,46.30
2019-04-23T05:34:55.316Z,46.30
2019-04-23T05:36:33.704Z,46.30
2019-04-23T05:36:59.701Z,46.30
2019-04-23T05:40:53.379Z,45.50
2019-04-23T05:41:39.736Z,45.50
2019-04-23T05:43:02.888Z,45.40
2019-04-23T05:44:10.178Z,45.20
2019-04-23T05:44:38.137Z,45.10
2019-04-23T05:45:55.019Z,45.30
2019-04-23T05:46:44.678Z,45.00
2019-04-23T05:48:17.335Z,45.00
2019-04-23T05:51:17.682Z,44.10
2019-04-23T05:51:50.218Z,44.00
2019-04-23T05:53:39.459Z,43.60
2019-04-23T05:55:07.316Z,43.40
2019-04-23T05:55:41.544Z,43.40
2019-04-23T05:56:38.106Z,43.70
2019-04-23T05:57:38.008Z,43.80
2019-04-23T05:59:11.441Z,43.80
2019-04-23T05:59:54.540Z,43.60
2019-04-23T06:01:31.976Z,43.20
2019-04-23T06:02:10.370Z,43.20
2019-04-23T06:03:48.688Z,42.40
2019-04-23T06:04:56.998Z,42.40
2019-04-23T06:06:10.132Z,42.60
2019-04-23T06:07:14.486Z,42.50
2019-04-23T06:08:11.285Z,42.40
2019-04-23T06:08:38.265Z,42.40
2019-04-23T06:10:04.575Z,42.40
2019-04-23T06:11:59.533Z,42.20
2019-04-23T06:14:00.107Z,41.90
2019-04-23T06:14:38.527Z,41.90
2019-04-23T06:16:04.513Z,42.00
2019-04-23T06:16:49.112Z,41.50
2019-04-23T06:18:01.373Z,41.50
2019-04-23T06:18:52.853Z,41.40
2019-04-23T06:19:32.537Z,41.60
2019-04-23T06:21:02.075Z,41.60
2019-04-23T06:22:05.766Z,41.50
2019-04-23T06:22:55.843Z,41.60
2019-04-23T06:23:57.762Z,41.80
2019-04-23T06:25:10.857Z,41.60
2019-04-23T06:26:31.863Z,41.60
2019-04-23T06:27:06.527Z,41.60
2019-04-23T06:27:31.864Z,41.70
2019-04-23T06:29:04.779Z,41.70
2019-04-23T06:29:55.830Z,41.80
2019-04-23T06:30:46.598Z,41.70
2019-04-23T06:32:51.059Z,41.30
2019-04-23T06:34:11.933Z,41.00
2019-04-23T06:34:56.424Z,41.10
2019-04-23T06:36:12.202Z,41.30
2019-04-23T06:38:21.789Z,41.20
2019-04-23T06:39:15.615Z,41.20
2019-04-23T06:39:59.610Z,41.00
2019-04-23T06:41:08.471Z,41.10
2019-04-23T06:42:05.533Z,41.30
2019-04-23T06:43:04.542Z,41.20
2019-04-23T06:43:57.983Z,41.10
2019-04-23T06:45:57.320Z,41.00
2019-04-23T06:47:06.518Z,40.90
2019-04-23T06:47:42.654Z,40.90
2019-04-23T06:49:08.643Z,41.00
2019-04-23T06:49:43.588Z,41.00
2019-04-23T06:51:19.340Z,41.10
2019-04-23T06:52:14.428Z,41.10
2019-04-23T06:54:42.203Z,40.40
2019-04-23T06:57:21.534Z,40.40
2019-04-23T06:57:53.967Z,40.40
2019-04-23T06:58:41.448Z,40.10
2019-04-23T06:59:58.986Z,40.10
2019-04-23T07:01:04.725Z,40.20
2019-04-23T07:01:59.102Z,40.10
2019-04-23T07:02:59.491Z,40.10
2019-04-23T07:03:43.046Z,40.00
2019-04-23T07:07:04.246Z,40.10
2019-04-23T07:09:07.684Z,39.20
2019-04-23T07:12:03.833Z,39.00
2019-04-23T07:12:55.593Z,39.20
2019-04-23T07:15:04.291Z,38.70
2019-04-23T07:16:02.802Z,38.70
2019-04-23T07:16:46.130Z,38.70
2019-04-23T07:17:47.534Z,38.40
2019-04-23T07:20:27.069Z,38.30
2019-04-23T07:20:39.787Z,38.50
2019-04-23T07:22:06.162Z,38.20
2019-04-23T07:22:49.583Z,38.20
2019-04-23T07:26:51.501Z,38.50
2019-04-23T07:27:47.195Z,38.80
2019-04-23T07:28:43.384Z,38.90
2019-04-23T07:30:01.297Z,38.80
2019-04-23T07:31:40.750Z,38.60
2019-04-23T07:32:35.601Z,38.30
2019-04-23T07:34:05.023Z,38.40
2019-04-23T07:34:37.248Z,38.40
2019-04-23T07:35:59.729Z,38.20
2019-04-23T07:36:40.426Z,38.40
2019-04-23T07:38:01.532Z,38.40
2019-04-23T07:39:15.399Z,38.60
2019-04-23T07:41:05.446Z,38.90
2019-04-23T07:42:16.565Z,39.00
2019-04-23T07:43:02.833Z,38.60
2019-04-23T07:45:09.218Z,38.10
2019-04-23T07:45:42.475Z,38.10
2019-04-23T07:47:02.925Z,38.00
2019-04-23T07:47:50.598Z,38.30
2019-04-23T07:48:39.952Z,38.20
2019-04-23T07:51:05.570Z,37.90
2019-04-23T07:51:46.578Z,37.90
2019-04-23T07:53:05.371Z,37.60
2019-04-23T07:53:51.599Z,37.40
2019-04-23T07:55:47.992Z,37.50
2019-04-23T07:57:08.593Z,37.70
2019-04-23T07:58:13.819Z,37.70
2019-04-23T07:58:33.034Z,38.00
2019-04-23T08:00:07.238Z,37.80
2019-04-23T08:00:45.024Z,37.80
2019-04-23T08:01:38.955Z,37.90
2019-04-23T08:02:33.346Z,37.70
2019-04-23T08:04:01.180Z,37.90
2019-04-23T08:05:07.455Z,37.90
2019-04-23T08:05:38.504Z,37.50
2019-04-23T08:06:58.852Z,37.00
2019-04-23T08:08:06.591Z,36.80
2019-04-23T08:09:47.577Z,36.50
2019-04-23T08:11:14.059Z,36.50
2019-04-23T08:11:44.123Z,36.70
2019-04-23T08:14:07.768Z,37.00
2019-04-23T08:14:46.749Z,37.00
2019-04-23T08:16:06.617Z,37.00
2019-04-23T08:16:36.545Z,37.10
2019-04-23T08:18:06.042Z,37.20
2019-04-23T08:18:36.025Z,37.30
2019-04-23T08:20:10.904Z,37.30
2019-04-23T08:21:09.670Z,37.10
2019-04-23T08:22:06.305Z,37.10
2019-04-23T08:23:08.669Z,37.30
2019-04-23T08:24:00.082Z,37.00
2019-04-23T08:24:55.174Z,37.00
2019-04-23T08:26:19.201Z,36.80
2019-04-23T08:26:58.938Z,36.90
2019-04-23T08:27:48.306Z,36.70
2019-04-23T08:29:03.501Z,37.00
2019-04-23T08:29:43.417Z,36.90
2019-04-23T08:30:58.815Z,37.10
2019-04-23T08:31:42.737Z,37.00
2019-04-23T08:32:56.659Z,37.00
2019-04-23T08:33:39.779Z,37.00
2019-04-23T08:35:42.759Z,37.20
2019-04-23T08:37:08.598Z,37.40
2019-04-23T08:38:00.370Z,36.40
2019-04-23T08:38:42.439Z,36.40
2019-04-23T08:39:59.685Z,36.40
2019-04-23T08:41:26.716Z,36.10
2019-04-23T08:42:13.793Z,36.10
2019-04-23T08:44:21.282Z,36.30
2019-04-23T08:45:52.336Z,36.20
2019-04-23T08:47:02.495Z,36.00
2019-04-23T08:47:39.648Z,35.70
2019-04-23T08:49:10.112Z,35.70
2019-04-23T08:49:56.236Z,35.90
2019-04-23T08:50:57.078Z,35.70
2019-04-23T08:51:51.276Z,36.30
2019-04-23T08:52:42.752Z,36.10
2019-04-23T08:53:55.264Z,36.20
2019-04-23T08:55:08.213Z,36.20
2019-04-23T08:55:48.823Z,36.00
2019-04-23T08:57:08.469Z,36.20
2019-04-23T08:57:55.135Z,35.80
2019-04-23T09:00:07.413Z,35.70
2019-04-23T09:03:45.612Z,35.70
2019-04-23T09:04:53.606Z,35.70
2019-04-23T09:06:10.528Z,35.70
2019-04-23T09:07:10.911Z,35.90
2019-04-23T09:07:59.441Z,36.00
2019-04-23T09:08:36.769Z,36.00
2019-04-23T09:11:04.254Z,36.00
2019-04-23T09:11:45.599Z,36.00
2019-04-23T09:13:17.996Z,36.20
2019-04-23T09:13:59.116Z,36.20
2019-04-23T09:14:50.774Z,35.70
2019-04-23T09:16:08.267Z,35.40
2019-04-23T09:16:57.418Z,35.40
2019-04-23T09:18:43.970Z,35.60
2019-04-23T09:19:52.990Z,35.70
2019-04-23T09:20:47.817Z,35.90
2019-04-23T09:22:00.300Z,35.50
2019-04-23T09:22:41.813Z,35.50
2019-04-23T09:24:09.015Z,35.50
2019-04-23T09:25:02.462Z,35.50
2019-04-23T09:25:40.420Z,35.60
2019-04-23T09:27:05.327Z,35.50
2019-04-23T09:27:52.463Z,35.70
2019-04-23T09:28:44.591Z,35.80
2019-04-23T09:29:59.881Z,35.40
2019-04-23T09:30:53.984Z,35.40
2019-04-23T09:32:34.719Z,35.60
2019-04-23T09:32:42.020Z,35.90
2019-04-23T09:33:57.872Z,35.80
2019-04-23T09:36:40.328Z,35.60
2019-04-23T09:37:59.445Z,35.40
2019-04-23T09:38:59.644Z,35.10
2019-04-23T09:40:16.517Z,35.60
2019-04-23T09:41:16.554Z,35.70
2019-04-23T09:41:37.048Z,35.60
2019-04-23T09:43:36.531Z,35.60
2019-04-23T09:44:53.514Z,35.60
2019-04-23T09:46:11.841Z,35.70
2019-04-23T09:47:00.189Z,35.40
2019-04-23T09:47:45.373Z,35.70
2019-04-23T09:49:05.374Z,35.60
2019-04-23T09:50:08.001Z,35.70
2019-04-23T09:50:48.730Z,35.50
2019-04-23T09:52:00.560Z,35.20
2019-04-23T09:52:53.979Z,34.90
2019-04-23T09:53:57.561Z,35.20
2019-04-23T09:55:37.227Z,35.50
2019-04-23T09:56:51.926Z,35.60
2019-04-23T09:58:01.969Z,35.70
2019-04-23T09:58:51.230Z,34.80
2019-04-23T09:59:42.843Z,34.00
2019-04-23T10:00:40.503Z,34.30
2019-04-23T10:01:44.843Z,34.80
2019-04-23T10:02:45.177Z,34.80
2019-04-23T10:03:38.431Z,34.80
2019-04-23T10:04:34.740Z,35.20
2019-04-23T10:05:33.423Z,34.80
2019-04-23T10:06:20.745Z,35.30
2019-04-23T10:07:34.624Z,35.10
2019-04-23T10:08:27.011Z,35.30
2019-04-23T10:09:10.525Z,33.90
2019-04-23T10:10:12.068Z,33.70
2019-04-23T10:11:07.224Z,33.70
2019-04-23T10:12:07.147Z,33.80
2019-04-23T10:13:07.913Z,33.60
2019-04-23T10:14:07.937Z,33.70
2019-04-23T10:15:22.467Z,33.50
2019-04-23T10:16:13.988Z,33.80
2019-04-23T10:17:08.328Z,33.90
2019-04-23T10:18:09.641Z,33.70
2019-04-23T10:19:07.761Z,33.60
2019-04-23T10:20:06.641Z,33.60
2019-04-23T10:21:07.570Z,33.60
2019-04-23T10:22:06.886Z,33.20
2019-04-23T10:23:08.006Z,33.60
2019-04-23T10:24:07.381Z,33.20
2019-04-23T10:25:07.063Z,32.80
2019-04-23T10:26:07.837Z,32.90
2019-04-23T10:27:08.171Z,33.20
2019-04-23T10:28:12.764Z,32.60
2019-04-23T10:29:07.609Z,32.60
2019-04-23T10:30:07.930Z,32.60
2019-04-23T10:31:06.936Z,33.00
2019-04-23T10:32:05.226Z,33.40
2019-04-23T10:33:11.977Z,32.90
2019-04-23T10:34:08.148Z,32.80
2019-04-23T10:35:25.488Z,32.80
2019-04-23T10:36:13.608Z,33.50
2019-04-23T10:37:07.153Z,32.40
2019-04-23T10:38:14.347Z,32.60
2019-04-23T10:39:25.506Z,33.00
2019-04-23T10:40:23.773Z,33.60
2019-04-23T10:41:06.775Z,33.60
2019-04-23T10:42:07.770Z,33.30
2019-04-23T10:43:08.891Z,32.60
2019-04-23T10:44:06.936Z,32.50
2019-04-23T10:45:34.350Z,32.70
2019-04-23T10:47:36.643Z,32.60
2019-04-23T10:49:31.215Z,32.80
2019-04-23T10:50:25.866Z,32.40
2019-04-23T10:50:45.881Z,32.40
2019-04-23T10:51:40.459Z,32.50
2019-04-23T10:53:18.502Z,33.00
2019-04-23T10:53:42.395Z,33.00
2019-04-23T10:55:05.703Z,33.00
2019-04-23T10:56:09.559Z,32.80
2019-04-23T10:56:44.657Z,32.90
2019-04-23T10:58:00.966Z,33.20
2019-04-23T10:58:44.777Z,32.80
2019-04-23T10:59:57.818Z,32.80
2019-04-23T11:01:04.005Z,32.30
2019-04-23T11:02:28.797Z,33.20
2019-04-23T11:04:38.080Z,32.30
2019-04-23T11:05:28.374Z,32.30
2019-04-23T11:06:23.108Z,32.00
2019-04-23T11:07:18.959Z,32.30
2019-04-23T11:07:53.110Z,32.60
2019-04-23T11:08:59.779Z,33.20
2019-04-23T11:10:01.586Z,33.60
2019-04-23T11:10:54.543Z,33.70
2019-04-23T11:12:23.210Z,33.90
2019-04-23T11:13:10.297Z,33.80
2019-04-23T11:13:44.747Z,33.70
2019-04-23T11:15:05.807Z,34.70
2019-04-23T11:16:44.626Z,34.20
2019-04-23T11:17:32.604Z,34.20
2019-04-23T11:17:51.129Z,34.00
2019-04-23T11:19:14.047Z,34.20
2019-04-23T11:20:47.774Z,34.00
2019-04-23T11:22:27.880Z,34.20
2019-04-23T11:22:47.536Z,33.90
2019-04-23T11:25:20.220Z,32.40
2019-04-23T11:26:21.444Z,32.50
2019-04-23T11:27:14.475Z,32.60
2019-04-23T11:28:13.141Z,32.90
2019-04-23T11:29:10.821Z,33.30
2019-04-23T11:30:18.882Z,33.40
2019-04-23T11:30:52.774Z,33.80
2019-04-23T11:33:18.265Z,33.90
2019-04-23T11:34:04.271Z,33.20
2019-04-23T11:35:36.271Z,33.20
2019-04-23T11:36:32.036Z,33.40
2019-04-23T11:36:59.384Z,33.30
2019-04-23T11:40:15.184Z,33.60
2019-04-23T11:40:58.225Z,33.40
2019-04-23T11:41:50.794Z,33.50
2019-04-23T11:43:12.712Z,33.70
2019-04-23T11:44:45.554Z,33.20
2019-04-23T11:47:11.310Z,33.20
2019-04-23T11:48:59.219Z,32.80
2019-04-23T11:49:44.645Z,32.80
2019-04-23T11:50:27.538Z,32.80
2019-04-23T11:51:25.453Z,32.70
2019-04-23T11:52:15.531Z,32.60
2019-04-23T11:52:58.929Z,32.80
2019-04-23T11:53:59.282Z,32.70
2019-04-23T11:56:10.896Z,32.40
2019-04-23T11:57:28.775Z,32.50
2019-04-23T11:58:18.622Z,32.50
2019-04-23T11:59:01.430Z,32.60
2019-04-23T12:00:13.531Z,33.10
2019-04-23T12:01:21.303Z,32.90
2019-04-23T12:01:52.132Z,33.00
2019-04-23T12:02:57.813Z,32.90
2019-04-23T12:04:26.103Z,32.80
2019-04-23T12:05:18.694Z,32.80
2019-04-23T12:07:07.408Z,32.90
2019-04-23T12:07:39.131Z,33.10
2019-04-23T12:09:15.581Z,33.40
2019-04-23T12:10:21.874Z,33.60
2019-04-23T12:12:16.706Z,34.00
2019-04-23T12:13:11.683Z,33.60
2019-04-23T12:14:08.123Z,33.60
2019-04-23T12:14:44.850Z,33.60
2019-04-23T12:15:37.303Z,34.00
2019-04-23T12:18:16.538Z,32.50
2019-04-23T12:20:20.785Z,32.50
2019-04-23T12:20:35.690Z,32.60
2019-04-23T12:22:16.291Z,32.70
2019-04-23T12:24:03.145Z,31.90
2019-04-23T12:25:06.177Z,31.90
2019-04-23T12:26:10.044Z,32.00
2019-04-23T12:27:05.108Z,31.90
2019-04-23T12:27:32.974Z,31.90
2019-04-23T12:28:43.719Z,31.90
2019-04-23T12:30:16.172Z,32.30
2019-04-23T12:31:06.743Z,31.30
2019-04-23T12:31:45.071Z,31.20
2019-04-23T12:33:01.597Z,31.90
2019-04-23T12:35:10.709Z,31.40
2019-04-23T12:35:32.368Z,31.30
2019-04-23T12:36:50.288Z,31.00
2019-04-23T12:38:05.886Z,31.00
2019-04-23T12:38:38.258Z,31.00
2019-04-23T12:40:13.883Z,31.30
2019-04-23T12:40:54.807Z,31.60
2019-04-23T12:42:33.967Z,31.50
2019-04-23T12:43:14.181Z,31.60
2019-04-23T12:43:46.956Z,32.10
2019-04-23T12:45:26.621Z,32.10
2019-04-23T12:45:35.314Z,31.60
2019-04-23T12:47:12.075Z,31.70
2019-04-23T12:47:55.038Z,31.70
2019-04-23T12:49:05.787Z,31.90
2019-04-23T12:50:04.879Z,32.00
2019-04-23T12:52:16.577Z,32.30
2019-04-23T12:52:39.406Z,32.40
2019-04-23T12:53:54.866Z,32.20
2019-04-23T12:56:07.995Z,31.80
2019-04-23T12:57:40.101Z,32.00
2019-04-23T12:58:54.563Z,32.20
2019-04-23T12:59:43.446Z,31.70
2019-04-23T13:00:45.246Z,31.90
2019-04-23T13:01:48.715Z,32.00
2019-04-23T13:02:54.936Z,31.90
2019-04-23T13:03:50.219Z,31.70
2019-04-23T13:05:08.793Z,31.70
2019-04-23T13:05:48.339Z,31.90
2019-04-23T13:07:05.492Z,31.70
2019-04-23T13:08:15.266Z,31.80
2019-04-23T13:09:21.236Z,31.90
2019-04-23T13:09:52.346Z,31.60
2019-04-23T13:10:49.243Z,31.60
2019-04-23T13:11:40.493Z,31.50
2019-04-23T13:12:49.758Z,31.90
2019-04-23T13:14:15.517Z,32.40
2019-04-23T13:15:46.393Z,32.40
2019-04-23T13:16:43.194Z,32.30
2019-04-23T13:18:08.791Z,32.30
2019-04-23T13:19:47.252Z,32.10
2019-04-23T13:20:36.467Z,32.30
2019-04-23T13:21:56.581Z,32.20
2019-04-23T13:23:53.091Z,32.10
2019-04-23T13:25:08.359Z,32.20
2019-04-23T13:25:56.763Z,32.40
2019-04-23T13:26:54.750Z,32.40
2019-04-23T13:28:05.386Z,32.20
2019-04-23T13:29:08.911Z,31.70
2019-04-23T13:29:42.723Z,31.90
2019-04-23T13:31:57.363Z,31.50
2019-04-23T13:33:05.285Z,31.80
2019-04-23T13:34:13.222Z,31.60
2019-04-23T13:35:27.389Z,31.60
2019-04-23T13:36:43.227Z,31.90
2019-04-23T13:38:14.292Z,31.50
2019-04-23T13:39:57.119Z,31.30
2019-04-23T13:42:13.681Z,31.50
2019-04-23T13:43:42.150Z,32.10
2019-04-23T13:46:19.538Z,31.60
2019-04-23T13:47:08.499Z,31.60
2019-04-23T13:47:52.691Z,31.30
2019-04-23T13:48:52.064Z,30.40
2019-04-23T13:51:20.632Z,30.40
2019-04-23T13:52:22.317Z,30.40
2019-04-23T13:54:06.738Z,30.30
2019-04-23T13:55:14.254Z,29.90
2019-04-23T13:58:02.130Z,30.70
2019-04-23T13:58:22.128Z,30.50
2019-04-23T13:59:13.180Z,30.70
2019-04-23T14:00:16.415Z,30.60
2019-04-23T14:00:51.749Z,30.50
2019-04-23T14:02:15.203Z,30.20
2019-04-23T14:03:01.089Z,30.10
2019-04-23T14:03:53.381Z,30.30
2019-04-23T14:05:21.461Z,30.50
2019-04-23T14:05:49.146Z,30.90
2019-04-23T14:07:12.695Z,30.80
2019-04-23T14:08:20.149Z,30.80
2019-04-23T14:08:53.107Z,31.10
2019-04-23T14:10:16.781Z,31.30
2019-04-23T14:11:00.803Z,31.30
2019-04-23T14:11:38.263Z,31.70
2019-04-23T14:14:24.251Z,31.90
2019-04-23T14:15:19.017Z,31.50
2019-04-23T14:17:23.562Z,31.80
2019-04-23T14:18:24.452Z,31.70
2019-04-23T14:19:00.331Z,31.80
2019-04-23T14:19:53.022Z,31.80
2019-04-23T14:23:06.644Z,31.70
2019-04-23T14:24:15.331Z,31.70
2019-04-23T14:24:52.909Z,31.30
2019-04-23T14:26:23.038Z,31.40
2019-04-23T14:26:57.946Z,31.40
2019-04-23T14:28:21.449Z,31.50
2019-04-23T14:29:03.895Z,31.60
2019-04-23T14:30:19.925Z,31.90
2019-04-23T14:31:10.379Z,31.70
2019-04-23T14:32:02.794Z,31.80
2019-04-23T14:32:59.234Z,31.80
2019-04-23T14:34:14.079Z,31.50
2019-04-23T14:35:10.353Z,31.90
2019-04-23T14:36:07.396Z,31.70
2019-04-23T14:36:40.871Z,31.70
2019-04-23T14:38:28.842Z,31.80
2019-04-23T14:38:47.141Z,31.70
2019-04-23T14:40:12.082Z,31.90
2019-04-23T14:40:55.827Z,32.20
2019-04-23T14:41:42.199Z,32.10
2019-04-23T14:43:21.763Z,32.10
2019-04-23T14:43:48.461Z,32.50
2019-04-23T14:45:11.843Z,31.90
2019-04-23T14:46:04.575Z,31.90
2019-04-23T14:47:23.201Z,32.00
2019-04-23T14:49:02.999Z,32.10
2019-04-23T14:50:31.784Z,32.20
2019-04-23T14:51:12.982Z,32.30
2019-04-23T14:53:17.958Z,32.40
2019-04-23T14:53:51.802Z,32.50
2019-04-23T14:56:19.940Z,32.30
2019-04-23T14:56:44.399Z,32.20
2019-04-23T14:58:09.415Z,31.70
2019-04-23T14:58:49.704Z,31.60
2019-04-23T15:01:26.735Z,31.90
2019-04-23T15:02:51.348Z,31.30
2019-04-23T15:03:46.008Z,31.20
2019-04-23T15:05:10.949Z,31.20
2019-04-23T15:07:15.187Z,31.20
2019-04-23T15:08:03.573Z,31.20
2019-04-23T15:09:27.181Z,31.20
2019-04-23T15:10:08.320Z,31.60
2019-04-23T15:10:55.247Z,31.60
2019-04-23T15:12:22.265Z,32.00